Powell, WY (82435)

03:26 PM MDT die 16o September, anno 2014 (GMT -0600)
Crestview Estates | Change Station
CLOSE
Current Station
Personal Weather Stations
Location: Powell, WY
Elevation: 4507 ft
Nearby Weather Stations

Elev 4507 ft 44.75 °N, 108.82 °W | Updated 10 seconds ago

Partialiter Nubila
Partialiter Nubila
81.9 °F
Feels Like 80 °F
N
2.3
Ventus Variabilis Ventus from Aquilo
Gusts 2.3 mph

Hodie
High -- | Low -- °F
--% Chance of Precip.
Yesterday
High -- | Low -- °F
Precip. -- in
6:55 AM 7:24 PM
Last Quarter, 42% visible
Pressio 30.07 in
Visibilitas 10.0 milia passuum
Clouds Plerumque Nubila 12000 ft
Index Caloris 80 °F
Frigus in quo Ros apparet 38 °F
Umor 21%
Rainfall 0.00 in
Snow Depth 0 in , 0 in , 0 in
UV 3 out of 12
Pollen 6.30 out of 12
Air Quality Not available.
Flu Activity Not available.
METAR KCOD 162115Z AUTO 35008KT 10SM BKN120 23/07 A3007 RMK AO1

More Conditions Fewer Conditions

Pressio 30.07 in
Visibilitas 10.0 milia passuum
Clouds Plerumque Nubila 12000 ft
Index Caloris 80 °F
Frigus in quo Ros apparet 38 °F
Umor 21%
Rainfall 0.00 in
Snow Depth 0 in , 0 in , 0 in
UV 3 out of 12
Pollen 6.30 out of 12
Air Quality Not available.
Flu Activity Not available.
METAR KCOD 162115Z AUTO 35008KT 10SM BKN120 23/07 A3007 RMK AO1

More Conditions Fewer Conditions

10-Day Weather Forecast

Almanac

Astronomy

Sep. 16, 2014 Rise Set
Actual Time 6:55 AM MDT 7:24 PM MDT
Civil Twilight 6:26 AM MDT 7:53 PM MDT
Nautical Twilight 5:51 AM MDT 8:28 PM MDT
Astronomical Twilight 5:15 AM MDT 9:03 PM MDT
Moon Nulla Ortus Lunae 3:01 PM MDT
Length Of Visible Light 13h 27m
Length of Day
12h 28m
Tomorrow will be 3m 5s shorter.
Last Quarter, 42% of the Moon is Illuminated
Hodie
Last Quarter
Sep 24
New
Oct 1
First Quarter
Oct 8
Full
Oct 15
Last Quarter

Today's Extremes

State Highs State Lows

Community

WunderPhotos

Upload Photos

1,753,888 photos uploaded!

Nearby

Snow Depth

Station Depth Elevation
Spring Creek Divide 0 in 9000 ft
Marquette 0 in 8760 ft
Sylvan Road 0 in 7120 ft
Salt River Summit 0 in 7600 ft
Evening Star 0 in 9200 ft

Earthquake Activity

City Distance Mag. Time & Date
No recent earthquake activity has been reported nearby.
Minimum magnitude displayed is 2.5.

Coastal Water Temperatures

Locus Calor
No Stations Reporting

Nearby Weather Stations